createdAt,value
2018-07-01T00:00:58.262Z,24.90
2018-07-01T00:03:26.918Z,24.91
2018-07-01T00:05:57.600Z,24.90
2018-07-01T00:08:26.244Z,24.88
2018-07-01T00:10:56.053Z,24.87
2018-07-01T00:13:24.681Z,24.84
2018-07-01T00:15:53.353Z,24.82
2018-07-01T00:18:30.933Z,24.85
2018-07-01T00:20:59.625Z,24.80
2018-07-01T00:23:28.223Z,24.80
2018-07-01T00:25:56.953Z,24.77
2018-07-01T00:28:25.538Z,24.75
2018-07-01T00:30:54.372Z,24.74
2018-07-01T00:33:23.116Z,24.80
2018-07-01T00:35:51.827Z,24.76
2018-07-01T00:38:20.686Z,24.74
2018-07-01T00:40:49.412Z,24.78
2018-07-01T00:43:18.148Z,24.73
2018-07-01T00:45:46.908Z,24.71
2018-07-01T00:48:15.742Z,24.69
2018-07-01T00:50:44.450Z,24.74
2018-07-01T00:53:14.120Z,24.74
2018-07-01T00:55:42.820Z,24.70
2018-07-01T00:58:11.493Z,24.75
2018-07-01T01:00:40.197Z,24.69
2018-07-01T01:03:08.793Z,24.67
2018-07-01T01:05:37.433Z,24.72
2018-07-01T01:08:06.329Z,24.65
2018-07-01T01:10:35.709Z,24.62
2018-07-01T01:13:04.377Z,24.59
2018-07-01T01:15:33.069Z,24.57
2018-07-01T01:18:01.672Z,24.56
2018-07-01T01:20:30.308Z,24.54
2018-07-01T01:22:58.940Z,24.52
2018-07-01T01:25:28.051Z,24.51
2018-07-01T01:27:56.747Z,24.58
2018-07-01T01:30:25.368Z,24.56
2018-07-01T01:32:54.350Z,24.55
2018-07-01T01:35:23.145Z,24.47
2018-07-01T01:37:51.854Z,24.46
2018-07-01T01:40:23.422Z,24.50
2018-07-01T01:43:01.522Z,24.51
2018-07-01T01:45:38.260Z,24.53
2018-07-01T01:48:11.549Z,24.53
2018-07-01T01:50:45.872Z,24.55
2018-07-01T01:54:19.786Z,24.51
2018-07-01T01:56:58.468Z,24.49
2018-07-01T01:59:31.264Z,24.49
2018-07-01T02:02:16.468Z,24.48
2018-07-01T02:04:50.404Z,24.54
2018-07-01T02:07:25.465Z,24.55
2018-07-01T02:09:54.387Z,24.52
2018-07-01T02:12:23.126Z,24.52
2018-07-01T02:14:57.579Z,24.49
2018-07-01T02:17:29.422Z,24.49
2018-07-01T02:19:58.176Z,24.56
2018-07-01T02:22:45.358Z,24.49
2018-07-01T02:25:18.114Z,24.49
2018-07-01T02:27:46.781Z,24.49
2018-07-01T02:30:15.485Z,24.54
2018-07-01T02:32:44.397Z,24.49
2018-07-01T02:35:13.072Z,24.48
2018-07-01T02:37:41.648Z,24.46
2018-07-01T02:40:10.591Z,24.45
2018-07-01T02:42:39.327Z,24.44
2018-07-01T02:45:09.330Z,24.43
2018-07-01T02:47:39.478Z,24.43
2018-07-01T02:50:08.464Z,24.42
2018-07-01T02:52:38.343Z,24.41
2018-07-01T02:55:08.676Z,24.46
2018-07-01T02:57:37.372Z,24.48
2018-07-01T03:00:06.079Z,22.76
2018-07-01T03:02:34.702Z,24.47
2018-07-01T03:05:03.400Z,24.45
2018-07-01T03:07:32.043Z,24.46
2018-07-01T03:10:00.690Z,24.44
2018-07-01T03:12:29.373Z,24.44
2018-07-01T03:14:58.054Z,24.42
2018-07-01T03:17:26.965Z,24.41
2018-07-01T03:19:55.774Z,24.40
2018-07-01T03:22:24.488Z,24.36
2018-07-01T03:24:53.189Z,24.29
2018-07-01T03:27:21.808Z,24.26
2018-07-01T03:29:50.664Z,24.27
2018-07-01T03:32:19.395Z,24.26
2018-07-01T03:34:48.065Z,24.26
2018-07-01T03:37:16.762Z,24.25
2018-07-01T03:39:45.547Z,24.27
2018-07-01T03:42:14.228Z,24.29
2018-07-01T03:44:43.501Z,24.29
2018-07-01T03:47:12.346Z,24.34
2018-07-01T03:49:41.050Z,24.32
2018-07-01T03:52:09.797Z,24.32
2018-07-01T03:54:38.516Z,24.35
2018-07-01T03:57:07.288Z,24.39
2018-07-01T03:59:35.943Z,24.37
2018-07-01T04:02:04.587Z,24.45
2018-07-01T04:04:33.337Z,24.41
2018-07-01T04:07:01.986Z,24.45
2018-07-01T04:09:34.181Z,24.49
2018-07-01T04:12:03.181Z,24.44
2018-07-01T04:14:32.186Z,24.46
2018-07-01T04:17:00.874Z,24.46
2018-07-01T04:19:37.197Z,24.53
2018-07-01T04:22:07.565Z,24.55
2018-07-01T04:24:36.739Z,24.57
2018-07-01T04:27:08.826Z,24.58
2018-07-01T04:29:37.682Z,24.59
2018-07-01T04:32:06.321Z,24.55
2018-07-01T04:34:34.951Z,24.63
2018-07-01T04:37:03.644Z,24.60
2018-07-01T04:39:32.392Z,24.66
2018-07-01T04:42:01.170Z,24.60
2018-07-01T04:44:29.933Z,24.61
2018-07-01T04:46:58.639Z,24.61
2018-07-01T04:49:27.360Z,24.64
2018-07-01T04:51:57.851Z,24.67
2018-07-01T04:54:26.600Z,24.73
2018-07-01T04:56:55.452Z,24.70
2018-07-01T04:59:25.973Z,24.77
2018-07-01T05:01:54.857Z,24.79
2018-07-01T05:04:23.537Z,24.81
2018-07-01T05:06:52.152Z,24.78
2018-07-01T05:09:20.896Z,24.84
2018-07-01T05:11:49.580Z,24.83
2018-07-01T05:14:18.310Z,24.80
2018-07-01T05:16:47.212Z,24.83
2018-07-01T05:19:16.017Z,24.82
2018-07-01T05:21:44.956Z,24.84
2018-07-01T05:24:13.614Z,24.83
2018-07-01T05:26:42.502Z,24.87
2018-07-01T05:29:11.739Z,24.89
2018-07-01T05:31:40.393Z,24.88
2018-07-01T05:34:08.953Z,24.96
2018-07-01T05:36:37.590Z,25.01
2018-07-01T05:39:09.698Z,25.06
2018-07-01T05:41:38.261Z,25.10
2018-07-01T05:44:07.100Z,25.14
2018-07-01T05:46:35.812Z,25.16
2018-07-01T05:49:04.960Z,25.13
2018-07-01T05:51:33.916Z,25.11
2018-07-01T05:54:02.542Z,25.07
2018-07-01T05:56:31.285Z,25.10
2018-07-01T05:58:59.974Z,25.05
2018-07-01T06:01:28.558Z,24.36
2018-07-01T06:03:57.095Z,23.41
2018-07-01T06:06:25.642Z,22.67
2018-07-01T06:08:54.269Z,22.42
2018-07-01T06:11:22.798Z,22.36
2018-07-01T06:13:51.417Z,22.29
2018-07-01T06:16:20.015Z,22.43
2018-07-01T06:18:48.582Z,22.54
2018-07-01T06:21:17.179Z,22.87
2018-07-01T06:23:45.844Z,23.08
2018-07-01T06:26:14.410Z,23.91
2018-07-01T06:28:42.954Z,24.89
2018-07-01T06:31:11.605Z,25.70
2018-07-01T06:33:40.264Z,26.74
2018-07-01T06:36:08.878Z,27.54
2018-07-01T06:38:37.426Z,27.55
2018-07-01T06:41:06.175Z,26.61
2018-07-01T06:43:34.793Z,26.41
2018-07-01T06:46:03.405Z,26.49
2018-07-01T06:48:32.109Z,26.89
2018-07-01T06:51:00.648Z,27.75
2018-07-01T06:53:29.193Z,28.25
2018-07-01T06:55:57.714Z,28.49
2018-07-01T06:58:26.239Z,28.53
2018-07-01T07:00:54.755Z,28.98
2018-07-01T07:03:23.294Z,29.38
2018-07-01T07:05:52.104Z,29.85
2018-07-01T07:08:21.401Z,30.38
2018-07-01T07:10:50.119Z,30.51
2018-07-01T07:13:18.832Z,30.69
2018-07-01T07:15:47.597Z,30.74
2018-07-01T07:18:16.299Z,30.90
2018-07-01T07:20:44.906Z,31.14
2018-07-01T07:23:13.586Z,31.52
2018-07-01T07:25:42.293Z,31.65
2018-07-01T07:28:10.951Z,31.53
2018-07-01T07:30:39.685Z,31.74
2018-07-01T07:33:08.296Z,32.25
2018-07-01T07:35:36.945Z,32.44
2018-07-01T07:38:05.641Z,32.57
2018-07-01T07:40:34.441Z,32.57
2018-07-01T07:43:03.013Z,32.29
2018-07-01T07:45:31.601Z,32.00
2018-07-01T07:48:00.190Z,31.79
2018-07-01T07:50:28.874Z,31.83
2018-07-01T07:52:57.505Z,32.09
2018-07-01T07:55:26.204Z,32.28
2018-07-01T07:57:54.899Z,32.62
2018-07-01T08:00:23.597Z,32.76
2018-07-01T08:02:52.260Z,32.81
2018-07-01T08:05:20.977Z,33.05
2018-07-01T08:07:49.732Z,32.94
2018-07-01T08:10:18.541Z,32.58
2018-07-01T08:12:47.502Z,32.61
2018-07-01T08:15:16.804Z,32.05
2018-07-01T08:17:45.460Z,31.29
2018-07-01T08:20:14.268Z,31.03
2018-07-01T08:22:43.251Z,30.54
2018-07-01T08:25:11.930Z,29.54
2018-07-01T08:27:40.663Z,28.97
2018-07-01T08:30:09.329Z,28.53
2018-07-01T08:32:38.017Z,28.10
2018-07-01T08:35:06.660Z,27.79
2018-07-01T08:37:35.418Z,27.68
2018-07-01T08:40:04.325Z,27.42
2018-07-01T08:42:34.309Z,26.95
2018-07-01T08:45:04.341Z,26.72
2018-07-01T08:47:33.655Z,26.68
2018-07-01T08:50:02.494Z,26.79
2018-07-01T08:52:31.489Z,26.60
2018-07-01T08:55:00.048Z,26.46
2018-07-01T08:57:29.390Z,26.20
2018-07-01T08:59:58.092Z,26.20
2018-07-01T09:02:26.865Z,25.73
2018-07-01T09:04:55.636Z,25.63
2018-07-01T09:07:24.577Z,25.56
2018-07-01T09:09:53.307Z,25.68
2018-07-01T09:12:21.931Z,25.70
2018-07-01T09:14:50.769Z,25.73
2018-07-01T09:17:19.610Z,25.74
2018-07-01T09:19:48.301Z,25.69
2018-07-01T09:22:17.016Z,25.26
2018-07-01T09:24:45.722Z,25.05
2018-07-01T09:27:14.387Z,24.89
2018-07-01T09:29:48.521Z,24.60
2018-07-01T09:32:17.210Z,24.46
2018-07-01T09:34:45.935Z,24.42
2018-07-01T09:37:14.324Z,24.69
2018-07-01T09:39:42.855Z,24.81
2018-07-01T09:50:11.253Z,27.04
2018-07-01T09:52:39.798Z,26.33
2018-07-01T09:55:08.342Z,27.42
2018-07-01T09:57:36.854Z,29.39
2018-07-01T10:00:06.349Z,28.64
2018-07-01T10:02:34.877Z,26.89
2018-07-01T10:05:03.484Z,26.74
2018-07-01T10:07:31.992Z,28.90
2018-07-01T10:10:00.517Z,27.40
2018-07-01T10:12:29.030Z,27.22
2018-07-01T10:14:57.796Z,26.38
2018-07-01T10:17:26.290Z,26.79
2018-07-01T10:19:54.846Z,27.57
2018-07-01T10:22:23.401Z,27.17
2018-07-01T10:24:51.927Z,27.37
2018-07-01T10:27:20.413Z,26.97
2018-07-01T10:29:48.961Z,28.06
2018-07-01T10:32:17.447Z,27.77
2018-07-01T10:34:46.038Z,28.24
2018-07-01T10:37:14.556Z,28.73
2018-07-01T10:39:43.056Z,29.77
2018-07-01T10:42:11.588Z,27.79
2018-07-01T10:44:40.128Z,27.30
2018-07-01T10:47:08.922Z,27.37
2018-07-01T10:49:37.409Z,27.13
2018-07-01T10:52:06.156Z,28.06
2018-07-01T10:54:34.672Z,30.27
2018-07-01T10:57:03.206Z,27.48
2018-07-01T10:59:31.723Z,26.67
2018-07-01T11:02:00.371Z,27.12
2018-07-01T11:04:28.901Z,27.06
2018-07-01T11:06:57.467Z,26.59
2018-07-01T11:09:25.977Z,27.48
2018-07-01T11:11:54.565Z,26.36
2018-07-01T11:14:23.127Z,27.00
2018-07-01T11:16:51.691Z,26.60
2018-07-01T11:19:20.231Z,25.07
2018-07-01T11:21:48.791Z,24.40
2018-07-01T11:24:17.318Z,25.73
2018-07-01T11:26:45.902Z,25.07
2018-07-01T11:29:14.436Z,23.69
2018-07-01T11:31:42.994Z,23.57
2018-07-01T11:34:11.502Z,23.43
2018-07-01T11:36:40.055Z,22.97
2018-07-01T11:39:09.968Z,23.07
2018-07-01T11:41:38.677Z,22.99
2018-07-01T11:44:07.224Z,23.11
2018-07-01T11:46:35.803Z,23.23
2018-07-01T11:49:04.411Z,23.42
2018-07-01T11:51:32.909Z,23.87
2018-07-01T11:54:01.493Z,23.07
2018-07-01T11:56:30.035Z,21.77
2018-07-01T11:58:58.535Z,21.88
2018-07-01T12:01:27.066Z,21.87
2018-07-01T12:03:55.767Z,21.80
2018-07-01T12:06:24.341Z,21.54
2018-07-01T12:08:53.046Z,21.46
2018-07-01T12:11:21.818Z,21.74
2018-07-01T12:13:50.556Z,21.51
2018-07-01T12:16:19.288Z,21.34
2018-07-01T12:18:48.998Z,21.31
2018-07-01T12:21:17.918Z,21.36
2018-07-01T12:23:46.537Z,21.31
2018-07-01T12:26:15.116Z,21.63
2018-07-01T12:28:44.034Z,21.66
2018-07-01T12:31:12.790Z,21.70
2018-07-01T12:33:41.507Z,21.73
2018-07-01T12:36:10.234Z,21.89
2018-07-01T12:38:39.100Z,21.78
2018-07-01T12:41:07.813Z,21.84
2018-07-01T12:43:36.563Z,21.83
2018-07-01T12:46:06.113Z,21.83
2018-07-01T12:48:35.050Z,21.97
2018-07-01T12:51:04.433Z,21.77
2018-07-01T12:53:33.346Z,21.99
2018-07-01T12:56:02.096Z,21.98
2018-07-01T12:58:30.835Z,22.13
2018-07-01T13:00:59.786Z,21.96
2018-07-01T13:03:28.595Z,21.92
2018-07-01T13:05:57.370Z,14.69
2018-07-01T13:08:26.158Z,22.01
2018-07-01T13:10:55.011Z,22.10
2018-07-01T13:13:23.700Z,22.27
2018-07-01T13:15:52.618Z,22.14
2018-07-01T13:18:21.626Z,21.93
2018-07-01T13:20:50.405Z,21.96
2018-07-01T13:23:19.549Z,22.10
2018-07-01T13:25:48.133Z,22.27
2018-07-01T13:28:16.887Z,22.64
2018-07-01T13:45:27.385Z,22.18
2018-07-01T13:47:55.992Z,22.48
2018-07-01T13:50:24.764Z,22.56
2018-07-01T13:52:53.468Z,22.19
2018-07-01T13:55:22.016Z,22.16
2018-07-01T13:57:50.707Z,22.16
2018-07-01T14:00:19.321Z,22.20
2018-07-01T14:02:48.019Z,22.53
2018-07-01T14:05:16.697Z,22.47
2018-07-01T14:07:45.276Z,22.42
2018-07-01T14:10:13.859Z,22.40
2018-07-01T14:12:42.481Z,22.61
2018-07-01T14:15:11.061Z,22.59
2018-07-01T14:17:39.623Z,22.42
2018-07-01T14:20:09.822Z,22.28
2018-07-01T14:22:38.712Z,22.54
2018-07-01T14:25:07.792Z,22.44
2018-07-01T14:27:36.356Z,22.45
2018-07-01T14:30:05.651Z,22.49
2018-07-01T14:32:34.398Z,22.74
2018-07-01T14:35:03.141Z,22.60
2018-07-01T14:37:32.038Z,22.58
2018-07-01T14:40:00.792Z,22.60
2018-07-01T14:42:29.592Z,22.61
2018-07-01T14:44:58.338Z,22.55
2018-07-01T14:47:27.130Z,22.61
2018-07-01T14:49:55.733Z,22.50
2018-07-01T14:52:24.465Z,22.58
2018-07-01T14:54:53.177Z,22.56
2018-07-01T14:57:21.870Z,22.54
2018-07-01T14:59:50.717Z,23.19
2018-07-01T15:02:19.357Z,23.47
2018-07-01T15:04:48.736Z,23.60
2018-07-01T15:07:17.537Z,23.59
2018-07-01T15:09:46.408Z,23.53
2018-07-01T15:12:15.101Z,23.13
2018-07-01T15:14:43.888Z,23.16
2018-07-01T15:17:12.606Z,23.15
2018-07-01T15:19:41.491Z,22.90
2018-07-01T15:22:10.500Z,22.78
2018-07-01T15:24:39.167Z,22.77
2018-07-01T15:27:07.923Z,22.72
2018-07-01T15:29:36.658Z,22.76
2018-07-01T15:32:05.389Z,22.96
2018-07-01T15:34:34.173Z,22.94
2018-07-01T15:37:02.859Z,22.90
2018-07-01T15:39:31.652Z,22.97
2018-07-01T15:42:00.578Z,22.85
2018-07-01T15:44:29.300Z,22.75
2018-07-01T15:46:57.921Z,22.67
2018-07-01T15:49:26.739Z,22.62
2018-07-01T15:51:56.063Z,22.78
2018-07-01T15:54:24.659Z,22.71
2018-07-01T15:56:53.374Z,22.54
2018-07-01T15:59:22.101Z,22.60
2018-07-01T16:01:51.066Z,22.67
2018-07-01T16:04:19.706Z,22.72
2018-07-01T16:06:48.453Z,22.63
2018-07-01T16:09:17.253Z,22.66
2018-07-01T16:11:46.145Z,22.66
2018-07-01T16:14:15.106Z,22.59
2018-07-01T16:16:43.836Z,22.58
2018-07-01T16:19:12.560Z,22.57
2018-07-01T16:21:41.150Z,22.57
2018-07-01T16:24:09.909Z,22.76
2018-07-01T16:26:43.629Z,22.59
2018-07-01T16:29:12.262Z,22.65
2018-07-01T16:31:40.862Z,22.67
2018-07-01T16:34:09.677Z,22.53
2018-07-01T16:36:38.320Z,22.49
2018-07-01T16:39:12.063Z,22.51
2018-07-01T16:41:40.817Z,22.59
2018-07-01T16:44:09.842Z,22.53
2018-07-01T16:46:38.674Z,22.53
2018-07-01T16:49:07.583Z,22.52
2018-07-01T16:51:36.246Z,22.49
2018-07-01T16:54:04.805Z,22.41
2018-07-01T16:56:33.464Z,22.35
2018-07-01T16:59:02.118Z,22.36
2018-07-01T17:01:30.835Z,22.39
2018-07-01T17:03:59.454Z,22.36
2018-07-01T17:06:28.156Z,22.34
2018-07-01T17:08:56.923Z,22.38
2018-07-01T17:11:25.618Z,22.27
2018-07-01T17:13:54.737Z,22.24
2018-07-01T17:16:23.454Z,22.24
2018-07-01T17:18:52.051Z,22.13
2018-07-01T17:21:20.712Z,22.15
2018-07-01T17:23:49.323Z,22.08
2018-07-01T17:26:18.050Z,22.08
2018-07-01T17:28:47.286Z,22.09
2018-07-01T17:31:21.204Z,22.11
2018-07-01T17:33:49.845Z,22.06
2018-07-01T17:36:18.562Z,21.95
2018-07-01T17:38:47.229Z,21.94
2018-07-01T17:41:15.924Z,21.90
2018-07-01T17:43:44.618Z,21.88
2018-07-01T17:46:13.493Z,21.85
2018-07-01T17:48:42.191Z,21.78
2018-07-01T17:51:10.800Z,21.77
2018-07-01T17:53:49.912Z,21.75
2018-07-01T17:56:18.707Z,21.74
2018-07-01T17:58:47.341Z,21.71
2018-07-01T18:01:16.274Z,21.60
2018-07-01T18:03:44.942Z,21.50
2018-07-01T18:06:13.565Z,21.43
2018-07-01T18:08:42.185Z,21.44
2018-07-01T18:11:10.837Z,21.35
2018-07-01T18:13:39.482Z,21.34
2018-07-01T18:16:08.468Z,21.22
2018-07-01T18:18:38.233Z,21.22
2018-07-01T18:21:09.122Z,21.16
2018-07-01T18:26:06.513Z,21.06
2018-07-01T18:28:45.184Z,20.99
2018-07-01T18:31:04.077Z,20.86
2018-07-01T18:33:33.323Z,20.78
2018-07-01T18:36:02.024Z,20.59
2018-07-01T18:38:31.377Z,20.53
2018-07-01T18:41:00.053Z,20.42
2018-07-01T18:43:28.909Z,16.35
2018-07-01T18:45:58.225Z,20.11
2018-07-01T18:48:27.176Z,20.04
2018-07-01T18:50:56.078Z,19.98
2018-07-01T18:53:24.824Z,20.01
2018-07-01T18:55:55.133Z,19.85
2018-07-01T18:58:24.355Z,19.79
2018-07-01T19:00:52.979Z,19.69
2018-07-01T19:03:21.689Z,19.64
2018-07-01T19:05:50.367Z,19.47
2018-07-01T19:08:19.324Z,19.38
2018-07-01T19:10:48.014Z,19.23
2018-07-01T19:13:16.609Z,19.24
2018-07-01T19:15:46.278Z,19.18
2018-07-01T19:18:15.054Z,19.07
2018-07-01T19:20:43.742Z,18.88
2018-07-01T19:23:12.472Z,18.81
2018-07-01T19:25:43.481Z,18.75
2018-07-01T19:28:12.318Z,18.66
2018-07-01T19:30:41.034Z,18.60
2018-07-01T19:33:10.150Z,18.61
2018-07-01T19:35:39.583Z,18.46
2018-07-01T19:38:08.297Z,18.53
2018-07-01T19:40:36.911Z,18.48
2018-07-01T19:43:05.855Z,18.45
2018-07-01T19:45:34.481Z,18.42
2018-07-01T19:48:03.255Z,18.32
2018-07-01T19:50:32.111Z,18.31
2018-07-01T19:53:00.881Z,18.29
2018-07-01T19:55:29.612Z,18.16
2018-07-01T19:57:58.186Z,18.09
2018-07-01T20:00:27.040Z,18.12
2018-07-01T20:02:55.613Z,17.85
2018-07-01T20:05:24.309Z,17.71
2018-07-01T20:07:53.173Z,17.56
2018-07-01T20:10:21.873Z,17.55
2018-07-01T20:12:50.586Z,17.49
2018-07-01T20:15:19.338Z,17.53
2018-07-01T20:17:48.195Z,17.50
2018-07-01T20:20:16.845Z,17.44
2018-07-01T20:22:45.718Z,17.25
2018-07-01T20:25:14.615Z,17.17
2018-07-01T20:27:43.470Z,17.17
2018-07-01T20:30:12.237Z,17.16
2018-07-01T20:32:41.499Z,17.11
2018-07-01T20:35:10.438Z,17.04
2018-07-01T20:37:39.382Z,16.99
2018-07-01T20:40:08.385Z,17.04
2018-07-01T20:42:39.858Z,16.96
2018-07-01T20:45:08.755Z,16.88
2018-07-01T20:47:37.575Z,16.81
2018-07-01T20:50:06.450Z,16.70
2018-07-01T20:52:35.322Z,16.60
2018-07-01T20:55:04.160Z,16.56
2018-07-01T20:57:33.178Z,16.56
2018-07-01T21:00:02.160Z,16.53
2018-07-01T21:02:32.048Z,16.37
2018-07-01T21:05:01.155Z,16.36
2018-07-01T21:07:29.934Z,16.31
2018-07-01T21:09:58.560Z,16.34
2018-07-01T21:12:27.284Z,16.30
2018-07-01T21:14:56.010Z,16.31
2018-07-01T21:17:24.582Z,16.12
2018-07-01T21:19:53.340Z,15.96
2018-07-01T21:22:22.084Z,15.96
2018-07-01T21:24:50.873Z,15.96
2018-07-01T21:27:19.549Z,15.98
2018-07-01T21:29:48.228Z,15.98
2018-07-01T21:32:16.999Z,16.03
2018-07-01T21:34:45.619Z,15.97
2018-07-01T21:37:15.309Z,15.96
2018-07-01T21:39:43.966Z,15.76
2018-07-01T21:42:12.731Z,15.83
2018-07-01T21:44:41.553Z,15.73
2018-07-01T21:47:10.284Z,15.73
2018-07-01T21:49:38.986Z,15.72
2018-07-01T21:52:07.732Z,15.69
2018-07-01T21:54:36.372Z,15.62
2018-07-01T21:57:05.272Z,15.70
2018-07-01T21:59:33.980Z,15.59
2018-07-01T22:02:02.762Z,15.59
2018-07-01T22:04:31.639Z,15.53
2018-07-01T22:07:01.465Z,15.53
2018-07-01T22:09:31.253Z,15.46
2018-07-01T22:12:10.946Z,15.36
2018-07-01T22:14:50.667Z,15.26
2018-07-01T22:17:19.460Z,15.28
2018-07-01T22:19:48.153Z,15.23
2018-07-01T22:22:16.769Z,15.27
2018-07-01T22:24:45.422Z,15.22
2018-07-01T22:27:14.168Z,15.16
2018-07-01T22:29:42.884Z,15.13
2018-07-01T22:32:11.652Z,15.00
2018-07-01T22:34:40.258Z,14.96
2018-07-01T22:37:09.083Z,14.90
2018-07-01T22:39:37.831Z,14.86
2018-07-01T22:42:06.537Z,14.82
2018-07-01T22:44:35.297Z,14.76
2018-07-01T22:47:04.115Z,14.78
2018-07-01T22:49:32.741Z,14.73
2018-07-01T22:52:01.467Z,14.72
2018-07-01T22:54:30.229Z,14.67
2018-07-01T22:56:58.889Z,14.60
2018-07-01T22:59:27.869Z,14.54
2018-07-01T23:03:07.517Z,14.53
2018-07-01T23:05:36.189Z,14.40
2018-07-01T23:08:04.888Z,14.27
2018-07-01T23:10:33.809Z,14.27
2018-07-01T23:13:02.612Z,14.35
2018-07-01T23:15:31.564Z,14.31
2018-07-01T23:18:00.235Z,14.23
2018-07-01T23:20:28.884Z,14.26
2018-07-01T23:22:57.634Z,14.26
2018-07-01T23:25:26.305Z,14.26
2018-07-01T23:27:55.093Z,14.19
2018-07-01T23:30:23.878Z,14.18
2018-07-01T23:32:52.732Z,14.13
2018-07-01T23:35:21.655Z,14.07
2018-07-01T23:37:50.387Z,14.09
2018-07-01T23:40:20.251Z,14.09
2018-07-01T23:42:48.944Z,14.01
2018-07-01T23:45:17.676Z,13.93
2018-07-01T23:47:46.336Z,13.88
2018-07-01T23:50:15.029Z,13.88
2018-07-01T23:52:43.720Z,13.76
2018-07-01T23:55:12.346Z,13.76
2018-07-01T23:57:41.086Z,13.66
